sensor_id;sensor_type;location;lat;lon;timestamp;P1;durP1;ratioP1;P2;durP2;ratioP2
37091;SDS011;23005;51.998;4.502;2022-11-15T00:00:04;187.65;;;64.25;;
37091;SDS011;23005;51.998;4.502;2022-11-15T00:01:42;157.15;;;61.47;;
37091;SDS011;23005;51.998;4.502;2022-11-15T00:03:23;169.82;;;59.55;;
37091;SDS011;23005;51.998;4.502;2022-11-15T00:05:06;150.75;;;56.45;;
37091;SDS011;23005;51.998;4.502;2022-11-15T00:06:47;164.77;;;59.70;;
37091;SDS011;23005;51.998;4.502;2022-11-15T00:08:24;151.52;;;56.58;;
37091;SDS011;23005;51.998;4.502;2022-11-15T00:10:04;169.60;;;61.08;;
37091;SDS011;23005;51.998;4.502;2022-11-15T00:11:43;167.88;;;61.85;;
37091;SDS011;23005;51.998;4.502;2022-11-15T00:13:19;155.35;;;62.17;;
37091;SDS011;23005;51.998;4.502;2022-11-15T00:14:55;160.40;;;57.90;;
37091;SDS011;23005;51.998;4.502;2022-11-15T00:16:31;172.32;;;62.20;;
37091;SDS011;23005;51.998;4.502;2022-11-15T00:18:10;172.95;;;58.85;;
37091;SDS011;23005;51.998;4.502;2022-11-15T00:19:48;177.65;;;59.90;;
37091;SDS011;23005;51.998;4.502;2022-11-15T00:21:29;161.40;;;57.67;;
37091;SDS011;23005;51.998;4.502;2022-11-15T00:23:04;169.73;;;60.47;;
37091;SDS011;23005;51.998;4.502;2022-11-15T00:24:41;169.13;;;58.92;;
37091;SDS011;23005;51.998;4.502;2022-11-15T00:26:17;153.23;;;55.33;;
37091;SDS011;23005;51.998;4.502;2022-11-15T00:27:56;186.80;;;60.63;;
37091;SDS011;23005;51.998;4.502;2022-11-15T00:29:32;174.10;;;60.33;;
37091;SDS011;23005;51.998;4.502;2022-11-15T00:31:13;211.07;;;63.75;;
37091;SDS011;23005;51.998;4.502;2022-11-15T00:32:49;169.18;;;59.00;;
37091;SDS011;23005;51.998;4.502;2022-11-15T00:34:25;179.77;;;59.75;;
37091;SDS011;23005;51.998;4.502;2022-11-15T00:36:01;160.32;;;57.63;;
37091;SDS011;23005;51.998;4.502;2022-11-15T00:37:37;157.77;;;57.53;;
37091;SDS011;23005;51.998;4.502;2022-11-15T00:39:13;177.82;;;60.17;;
37091;SDS011;23005;51.998;4.502;2022-11-15T00:40:49;183.20;;;61.33;;
37091;SDS011;23005;51.998;4.502;2022-11-15T00:42:25;149.30;;;56.13;;
37091;SDS011;23005;51.998;4.502;2022-11-15T00:44:03;183.13;;;59.97;;
37091;SDS011;23005;51.998;4.502;2022-11-15T00:45:39;188.43;;;63.65;;
37091;SDS011;23005;51.998;4.502;2022-11-15T00:47:14;171.65;;;58.88;;
37091;SDS011;23005;51.998;4.502;2022-11-15T00:48:50;191.82;;;63.20;;
37091;SDS011;23005;51.998;4.502;2022-11-15T00:50:26;197.88;;;64.18;;
37091;SDS011;23005;51.998;4.502;2022-11-15T00:52:02;179.73;;;60.03;;
37091;SDS011;23005;51.998;4.502;2022-11-15T00:53:38;179.13;;;60.20;;
37091;SDS011;23005;51.998;4.502;2022-11-15T00:55:14;190.10;;;64.82;;
37091;SDS011;23005;51.998;4.502;2022-11-15T00:56:52;187.90;;;63.22;;
37091;SDS011;23005;51.998;4.502;2022-11-15T00:58:28;174.05;;;59.95;;
37091;SDS011;23005;51.998;4.502;2022-11-15T01:00:06;206.30;;;64.82;;
37091;SDS011;23005;51.998;4.502;2022-11-15T01:01:44;178.48;;;61.15;;
37091;SDS011;23005;51.998;4.502;2022-11-15T01:03:24;196.07;;;62.58;;
37091;SDS011;23005;51.998;4.502;2022-11-15T01:05:05;180.38;;;59.95;;
37091;SDS011;23005;51.998;4.502;2022-11-15T01:06:47;174.80;;;61.88;;
37091;SDS011;23005;51.998;4.502;2022-11-15T01:08:23;178.35;;;59.65;;
37091;SDS011;23005;51.998;4.502;2022-11-15T01:09:59;188.52;;;62.10;;
37091;SDS011;23005;51.998;4.502;2022-11-15T01:11:35;188.57;;;63.22;;
37091;SDS011;23005;51.998;4.502;2022-11-15T01:13:10;193.73;;;63.80;;
37091;SDS011;23005;51.998;4.502;2022-11-15T01:14:46;170.90;;;59.40;;
37091;SDS011;23005;51.998;4.502;2022-11-15T01:16:23;185.15;;;62.42;;
37091;SDS011;23005;51.998;4.502;2022-11-15T01:17:59;182.13;;;62.35;;
37091;SDS011;23005;51.998;4.502;2022-11-15T01:19:35;182.27;;;65.68;;
37091;SDS011;23005;51.998;4.502;2022-11-15T01:21:16;187.20;;;66.63;;
37091;SDS011;23005;51.998;4.502;2022-11-15T01:22:54;185.98;;;64.35;;
37091;SDS011;23005;51.998;4.502;2022-11-15T01:24:30;169.38;;;63.10;;
37091;SDS011;23005;51.998;4.502;2022-11-15T01:26:07;184.82;;;64.22;;
37091;SDS011;23005;51.998;4.502;2022-11-15T01:29:08;196.05;;;63.88;;
37091;SDS011;23005;51.998;4.502;2022-11-15T01:30:46;180.35;;;62.03;;
37091;SDS011;23005;51.998;4.502;2022-11-15T01:32:24;190.88;;;65.78;;
37091;SDS011;23005;51.998;4.502;2022-11-15T01:34:01;166.23;;;61.97;;
37091;SDS011;23005;51.998;4.502;2022-11-15T01:35:38;170.32;;;61.17;;
37091;SDS011;23005;51.998;4.502;2022-11-15T01:37:13;200.52;;;66.10;;
37091;SDS011;23005;51.998;4.502;2022-11-15T01:38:52;193.82;;;65.25;;
37091;SDS011;23005;51.998;4.502;2022-11-15T01:40:29;204.48;;;67.43;;
37091;SDS011;23005;51.998;4.502;2022-11-15T01:42:05;193.20;;;66.15;;
37091;SDS011;23005;51.998;4.502;2022-11-15T01:43:40;187.35;;;65.95;;
37091;SDS011;23005;51.998;4.502;2022-11-15T01:45:16;181.73;;;66.00;;
37091;SDS011;23005;51.998;4.502;2022-11-15T01:46:52;196.85;;;67.85;;
37091;SDS011;23005;51.998;4.502;2022-11-15T01:48:30;168.00;;;62.88;;
37091;SDS011;23005;51.998;4.502;2022-11-15T01:50:09;186.43;;;64.95;;
37091;SDS011;23005;51.998;4.502;2022-11-15T01:51:51;193.10;;;65.10;;
37091;SDS011;23005;51.998;4.502;2022-11-15T01:53:27;173.32;;;64.00;;
37091;SDS011;23005;51.998;4.502;2022-11-15T01:55:07;197.02;;;67.05;;
37091;SDS011;23005;51.998;4.502;2022-11-15T01:56:49;174.48;;;64.22;;
37091;SDS011;23005;51.998;4.502;2022-11-15T01:58:31;181.77;;;64.25;;
37091;SDS011;23005;51.998;4.502;2022-11-15T02:00:08;178.57;;;65.95;;
37091;SDS011;23005;51.998;4.502;2022-11-15T02:01:45;196.25;;;69.50;;
37091;SDS011;23005;51.998;4.502;2022-11-15T02:03:28;198.23;;;66.72;;
37091;SDS011;23005;51.998;4.502;2022-11-15T02:05:18;195.10;;;68.63;;
37091;SDS011;23005;51.998;4.502;2022-11-15T02:06:59;187.13;;;65.80;;
37091;SDS011;23005;51.998;4.502;2022-11-15T02:08:37;178.25;;;63.28;;
37091;SDS011;23005;51.998;4.502;2022-11-15T02:10:14;182.02;;;64.63;;
37091;SDS011;23005;51.998;4.502;2022-11-15T02:11:54;181.00;;;68.22;;
37091;SDS011;23005;51.998;4.502;2022-11-15T02:13:30;188.02;;;67.97;;
37091;SDS011;23005;51.998;4.502;2022-11-15T02:15:07;203.88;;;68.97;;
37091;SDS011;23005;51.998;4.502;2022-11-15T02:16:47;180.05;;;65.57;;
37091;SDS011;23005;51.998;4.502;2022-11-15T02:18:35;193.45;;;68.60;;
37091;SDS011;23005;51.998;4.502;2022-11-15T02:22:21;194.35;;;67.90;;
37091;SDS011;23005;51.998;4.502;2022-11-15T02:24:24;205.85;;;71.20;;
37091;SDS011;23005;51.998;4.502;2022-11-15T02:26:50;178.80;;;64.13;;
37091;SDS011;23005;51.998;4.502;2022-11-15T02:29:07;188.30;;;66.32;;
37091;SDS011;23005;51.998;4.502;2022-11-15T02:30:47;199.57;;;69.43;;
37091;SDS011;23005;51.998;4.502;2022-11-15T02:32:34;203.85;;;70.30;;
37091;SDS011;23005;51.998;4.502;2022-11-15T02:34:20;170.15;;;62.75;;
37091;SDS011;23005;51.998;4.502;2022-11-15T02:36:07;173.32;;;67.90;;
37091;SDS011;23005;51.998;4.502;2022-11-15T02:37:51;179.10;;;69.05;;
37091;SDS011;23005;51.998;4.502;2022-11-15T02:39:34;171.57;;;63.70;;
37091;SDS011;23005;51.998;4.502;2022-11-15T02:41:23;152.13;;;61.17;;
37091;SDS011;23005;51.998;4.502;2022-11-15T02:43:04;166.63;;;66.88;;
37091;SDS011;23005;51.998;4.502;2022-11-15T02:44:44;161.10;;;62.15;;
37091;SDS011;23005;51.998;4.502;2022-11-15T02:46:24;161.38;;;62.45;;
37091;SDS011;23005;51.998;4.502;2022-11-15T02:48:09;162.70;;;63.85;;
37091;SDS011;23005;51.998;4.502;2022-11-15T02:49:47;170.05;;;63.38;;
37091;SDS011;23005;51.998;4.502;2022-11-15T02:51:32;160.85;;;63.78;;
37091;SDS011;23005;51.998;4.502;2022-11-15T02:53:09;174.35;;;67.15;;
37091;SDS011;23005;51.998;4.502;2022-11-15T02:54:52;168.68;;;68.10;;
37091;SDS011;23005;51.998;4.502;2022-11-15T02:56:28;182.85;;;66.03;;
37091;SDS011;23005;51.998;4.502;2022-11-15T02:58:11;203.65;;;73.75;;
37091;SDS011;23005;51.998;4.502;2022-11-15T03:00:29;161.93;;;64.10;;
37091;SDS011;23005;51.998;4.502;2022-11-15T03:02:20;162.27;;;64.13;;
37091;SDS011;23005;51.998;4.502;2022-11-15T03:04:16;158.77;;;64.97;;
37091;SDS011;23005;51.998;4.502;2022-11-15T03:06:19;141.93;;;60.85;;
37091;SDS011;23005;51.998;4.502;2022-11-15T03:08:08;155.70;;;62.53;;
37091;SDS011;23005;51.998;4.502;2022-11-15T03:09:56;138.57;;;60.38;;
37091;SDS011;23005;51.998;4.502;2022-11-15T03:11:48;139.35;;;60.75;;
37091;SDS011;23005;51.998;4.502;2022-11-15T03:13:38;126.73;;;57.80;;
37091;SDS011;23005;51.998;4.502;2022-11-15T03:15:24;134.50;;;60.33;;
37091;SDS011;23005;51.998;4.502;2022-11-15T03:17:05;144.13;;;63.33;;
37091;SDS011;23005;51.998;4.502;2022-11-15T03:18:53;130.80;;;56.22;;
37091;SDS011;23005;51.998;4.502;2022-11-15T03:20:34;114.15;;;55.33;;
37091;SDS011;23005;51.998;4.502;2022-11-15T03:22:14;126.13;;;55.90;;
37091;SDS011;23005;51.998;4.502;2022-11-15T03:25:19;116.25;;;56.05;;
37091;SDS011;23005;51.998;4.502;2022-11-15T03:26:59;118.00;;;54.88;;
37091;SDS011;23005;51.998;4.502;2022-11-15T03:28:38;108.45;;;52.25;;
37091;SDS011;23005;51.998;4.502;2022-11-15T03:30:22;103.85;;;49.45;;
37091;SDS011;23005;51.998;4.502;2022-11-15T03:31:58;108.13;;;52.13;;
37091;SDS011;23005;51.998;4.502;2022-11-15T03:33:42;103.60;;;51.67;;
37091;SDS011;23005;51.998;4.502;2022-11-15T03:35:21;97.50;;;48.55;;
37091;SDS011;23005;51.998;4.502;2022-11-15T03:36:59;100.68;;;51.17;;
37091;SDS011;23005;51.998;4.502;2022-11-15T03:38:36;97.05;;;47.33;;
37091;SDS011;23005;51.998;4.502;2022-11-15T03:40:15;90.35;;;46.88;;
37091;SDS011;23005;51.998;4.502;2022-11-15T03:41:55;94.32;;;45.42;;
37091;SDS011;23005;51.998;4.502;2022-11-15T03:43:46;97.75;;;50.20;;
37091;SDS011;23005;51.998;4.502;2022-11-15T03:45:31;89.65;;;44.92;;
37091;SDS011;23005;51.998;4.502;2022-11-15T03:47:12;91.03;;;46.05;;
37091;SDS011;23005;51.998;4.502;2022-11-15T03:48:56;84.53;;;44.67;;
37091;SDS011;23005;51.998;4.502;2022-11-15T03:50:45;92.53;;;44.90;;
37091;SDS011;23005;51.998;4.502;2022-11-15T03:52:23;92.43;;;45.83;;
37091;SDS011;23005;51.998;4.502;2022-11-15T03:54:02;82.75;;;42.92;;
37091;SDS011;23005;51.998;4.502;2022-11-15T03:55:39;92.30;;;45.60;;
37091;SDS011;23005;51.998;4.502;2022-11-15T03:57:16;77.38;;;43.63;;
37091;SDS011;23005;51.998;4.502;2022-11-15T03:58:53;81.97;;;42.13;;
37091;SDS011;23005;51.998;4.502;2022-11-15T04:00:29;78.90;;;39.67;;
37091;SDS011;23005;51.998;4.502;2022-11-15T04:02:06;82.40;;;42.67;;
37091;SDS011;23005;51.998;4.502;2022-11-15T04:03:46;85.88;;;41.17;;
37091;SDS011;23005;51.998;4.502;2022-11-15T04:05:27;83.25;;;40.47;;
37091;SDS011;23005;51.998;4.502;2022-11-15T04:07:09;79.03;;;39.95;;
37091;SDS011;23005;51.998;4.502;2022-11-15T04:08:46;70.82;;;38.47;;
37091;SDS011;23005;51.998;4.502;2022-11-15T04:10:22;79.15;;;36.85;;
37091;SDS011;23005;51.998;4.502;2022-11-15T04:11:58;72.03;;;36.67;;
37091;SDS011;23005;51.998;4.502;2022-11-15T04:13:35;72.88;;;34.47;;
37091;SDS011;23005;51.998;4.502;2022-11-15T04:15:11;64.60;;;33.60;;
37091;SDS011;23005;51.998;4.502;2022-11-15T04:16:49;63.55;;;33.35;;
37091;SDS011;23005;51.998;4.502;2022-11-15T04:18:25;64.97;;;33.85;;
37091;SDS011;23005;51.998;4.502;2022-11-15T04:20:05;67.47;;;34.17;;
37091;SDS011;23005;51.998;4.502;2022-11-15T04:21:44;64.78;;;32.40;;
37091;SDS011;23005;51.998;4.502;2022-11-15T04:23:21;63.63;;;32.45;;
37091;SDS011;23005;51.998;4.502;2022-11-15T04:24:59;64.15;;;32.13;;
37091;SDS011;23005;51.998;4.502;2022-11-15T04:26:35;65.45;;;31.92;;
37091;SDS011;23005;51.998;4.502;2022-11-15T04:28:11;52.78;;;28.52;;
37091;SDS011;23005;51.998;4.502;2022-11-15T04:29:47;65.07;;;29.45;;
37091;SDS011;23005;51.998;4.502;2022-11-15T04:31:28;59.70;;;29.60;;
37091;SDS011;23005;51.998;4.502;2022-11-15T04:33:04;51.47;;;29.33;;
37091;SDS011;23005;51.998;4.502;2022-11-15T04:34:40;56.03;;;29.02;;
37091;SDS011;23005;51.998;4.502;2022-11-15T04:36:16;54.63;;;28.75;;
37091;SDS011;23005;51.998;4.502;2022-11-15T04:37:53;55.97;;;28.80;;
37091;SDS011;23005;51.998;4.502;2022-11-15T04:39:33;57.22;;;28.30;;
37091;SDS011;23005;51.998;4.502;2022-11-15T04:41:14;58.85;;;28.02;;
37091;SDS011;23005;51.998;4.502;2022-11-15T04:42:50;51.78;;;27.67;;
37091;SDS011;23005;51.998;4.502;2022-11-15T04:44:27;48.50;;;26.30;;
37091;SDS011;23005;51.998;4.502;2022-11-15T04:46:04;63.58;;;29.60;;
37091;SDS011;23005;51.998;4.502;2022-11-15T04:47:40;47.88;;;27.50;;
37091;SDS011;23005;51.998;4.502;2022-11-15T04:49:18;52.92;;;27.83;;
37091;SDS011;23005;51.998;4.502;2022-11-15T04:50:55;51.45;;;27.90;;
37091;SDS011;23005;51.998;4.502;2022-11-15T04:52:33;55.05;;;27.48;;
37091;SDS011;23005;51.998;4.502;2022-11-15T04:54:08;63.25;;;27.58;;
37091;SDS011;23005;51.998;4.502;2022-11-15T04:55:47;57.10;;;27.40;;
37091;SDS011;23005;51.998;4.502;2022-11-15T04:57:23;58.88;;;26.83;;
37091;SDS011;23005;51.998;4.502;2022-11-15T04:58:59;56.35;;;27.10;;
37091;SDS011;23005;51.998;4.502;2022-11-15T05:00:34;54.17;;;28.90;;
37091;SDS011;23005;51.998;4.502;2022-11-15T05:02:10;54.22;;;26.85;;
37091;SDS011;23005;51.998;4.502;2022-11-15T05:03:51;54.05;;;26.67;;
37091;SDS011;23005;51.998;4.502;2022-11-15T05:05:31;51.65;;;26.40;;
37091;SDS011;23005;51.998;4.502;2022-11-15T05:07:11;51.25;;;25.73;;
37091;SDS011;23005;51.998;4.502;2022-11-15T05:08:46;59.78;;;25.98;;
37091;SDS011;23005;51.998;4.502;2022-11-15T05:10:22;50.90;;;25.77;;
37091;SDS011;23005;51.998;4.502;2022-11-15T05:12:00;55.33;;;26.85;;
37091;SDS011;23005;51.998;4.502;2022-11-15T05:13:37;48.42;;;24.58;;
37091;SDS011;23005;51.998;4.502;2022-11-15T05:15:13;45.67;;;24.02;;
37091;SDS011;23005;51.998;4.502;2022-11-15T05:16:49;48.60;;;24.88;;
37091;SDS011;23005;51.998;4.502;2022-11-15T05:18:25;49.15;;;25.17;;
37091;SDS011;23005;51.998;4.502;2022-11-15T05:20:04;46.47;;;23.23;;
37091;SDS011;23005;51.998;4.502;2022-11-15T05:21:42;48.40;;;24.25;;
37091;SDS011;23005;51.998;4.502;2022-11-15T05:23:20;51.25;;;23.25;;
37091;SDS011;23005;51.998;4.502;2022-11-15T05:24:57;44.38;;;22.52;;
37091;SDS011;23005;51.998;4.502;2022-11-15T05:26:32;42.03;;;22.92;;
37091;SDS011;23005;51.998;4.502;2022-11-15T05:28:09;46.35;;;22.92;;
37091;SDS011;23005;51.998;4.502;2022-11-15T05:29:46;40.28;;;22.13;;
37091;SDS011;23005;51.998;4.502;2022-11-15T05:31:27;41.15;;;22.63;;
37091;SDS011;23005;51.998;4.502;2022-11-15T05:33:03;42.72;;;23.58;;
37091;SDS011;23005;51.998;4.502;2022-11-15T05:34:39;49.92;;;22.30;;
37091;SDS011;23005;51.998;4.502;2022-11-15T05:36:17;38.70;;;22.00;;
37091;SDS011;23005;51.998;4.502;2022-11-15T05:38:00;46.00;;;21.15;;
37091;SDS011;23005;51.998;4.502;2022-11-15T05:39:36;42.67;;;21.52;;
37091;SDS011;23005;51.998;4.502;2022-11-15T05:41:17;39.47;;;20.05;;
37091;SDS011;23005;51.998;4.502;2022-11-15T05:44:22;41.72;;;21.63;;
37091;SDS011;23005;51.998;4.502;2022-11-15T05:45:58;40.22;;;20.70;;
37091;SDS011;23005;51.998;4.502;2022-11-15T05:47:36;38.35;;;21.00;;
37091;SDS011;23005;51.998;4.502;2022-11-15T05:49:14;55.42;;;21.42;;
37091;SDS011;23005;51.998;4.502;2022-11-15T05:50:54;43.25;;;19.77;;
37091;SDS011;23005;51.998;4.502;2022-11-15T05:52:33;36.05;;;18.05;;
37091;SDS011;23005;51.998;4.502;2022-11-15T05:54:12;38.67;;;20.75;;
37091;SDS011;23005;51.998;4.502;2022-11-15T05:55:49;37.42;;;17.60;;
37091;SDS011;23005;51.998;4.502;2022-11-15T05:57:25;39.33;;;18.58;;
37091;SDS011;23005;51.998;4.502;2022-11-15T05:59:01;38.63;;;17.27;;
37091;SDS011;23005;51.998;4.502;2022-11-15T06:00:39;32.88;;;16.55;;
37091;SDS011;23005;51.998;4.502;2022-11-15T06:02:16;39.00;;;16.70;;
37091;SDS011;23005;51.998;4.502;2022-11-15T06:03:57;38.58;;;15.73;;
37091;SDS011;23005;51.998;4.502;2022-11-15T06:05:38;32.05;;;16.35;;
37091;SDS011;23005;51.998;4.502;2022-11-15T06:07:14;31.50;;;15.02;;
37091;SDS011;23005;51.998;4.502;2022-11-15T06:08:50;34.33;;;14.77;;
37091;SDS011;23005;51.998;4.502;2022-11-15T06:10:27;28.60;;;14.18;;
37091;SDS011;23005;51.998;4.502;2022-11-15T06:12:03;31.50;;;13.93;;
37091;SDS011;23005;51.998;4.502;2022-11-15T06:13:40;35.42;;;13.38;;
37091;SDS011;23005;51.998;4.502;2022-11-15T06:15:16;32.20;;;12.30;;
37091;SDS011;23005;51.998;4.502;2022-11-15T06:16:54;28.52;;;12.90;;
37091;SDS011;23005;51.998;4.502;2022-11-15T06:18:31;30.27;;;13.63;;
37091;SDS011;23005;51.998;4.502;2022-11-15T06:20:09;28.38;;;12.18;;
37091;SDS011;23005;51.998;4.502;2022-11-15T06:21:48;34.45;;;12.98;;
37091;SDS011;23005;51.998;4.502;2022-11-15T06:23:27;26.38;;;12.52;;
37091;SDS011;23005;51.998;4.502;2022-11-15T06:25:08;35.15;;;11.73;;
37091;SDS011;23005;51.998;4.502;2022-11-15T06:26:51;32.25;;;12.65;;
37091;SDS011;23005;51.998;4.502;2022-11-15T06:28:32;28.27;;;11.63;;
37091;SDS011;23005;51.998;4.502;2022-11-15T06:30:11;22.25;;;10.75;;
37091;SDS011;23005;51.998;4.502;2022-11-15T06:31:47;29.02;;;11.55;;
37091;SDS011;23005;51.998;4.502;2022-11-15T06:33:33;25.58;;;11.18;;
37091;SDS011;23005;51.998;4.502;2022-11-15T06:35:12;31.48;;;11.93;;
37091;SDS011;23005;51.998;4.502;2022-11-15T06:36:49;25.02;;;10.95;;
37091;SDS011;23005;51.998;4.502;2022-11-15T06:38:28;30.17;;;11.57;;
37091;SDS011;23005;51.998;4.502;2022-11-15T06:40:04;32.00;;;12.27;;
37091;SDS011;23005;51.998;4.502;2022-11-15T06:41:51;27.80;;;10.88;;
37091;SDS011;23005;51.998;4.502;2022-11-15T06:43:35;23.70;;;11.18;;
37091;SDS011;23005;51.998;4.502;2022-11-15T06:45:11;25.27;;;11.05;;
37091;SDS011;23005;51.998;4.502;2022-11-15T06:46:48;29.02;;;11.70;;
37091;SDS011;23005;51.998;4.502;2022-11-15T06:48:32;23.63;;;10.50;;
37091;SDS011;23005;51.998;4.502;2022-11-15T06:50:22;26.55;;;9.70;;
37091;SDS011;23005;51.998;4.502;2022-11-15T06:52:18;23.83;;;9.95;;
37091;SDS011;23005;51.998;4.502;2022-11-15T06:54:02;23.75;;;10.23;;
37091;SDS011;23005;51.998;4.502;2022-11-15T06:55:49;27.55;;;10.43;;
37091;SDS011;23005;51.998;4.502;2022-11-15T06:59:06;27.50;;;10.18;;
37091;SDS011;23005;51.998;4.502;2022-11-15T07:00:45;24.17;;;10.15;;
37091;SDS011;23005;51.998;4.502;2022-11-15T07:02:40;22.25;;;9.52;;
37091;SDS011;23005;51.998;4.502;2022-11-15T07:04:22;22.88;;;9.60;;
37091;SDS011;23005;51.998;4.502;2022-11-15T07:07:26;26.05;;;9.35;;
37091;SDS011;23005;51.998;4.502;2022-11-15T07:09:03;24.50;;;9.68;;
37091;SDS011;23005;51.998;4.502;2022-11-15T07:10:41;24.75;;;9.63;;
37091;SDS011;23005;51.998;4.502;2022-11-15T07:12:21;23.88;;;9.23;;
37091;SDS011;23005;51.998;4.502;2022-11-15T07:13:59;22.17;;;9.20;;
37091;SDS011;23005;51.998;4.502;2022-11-15T07:15:35;21.15;;;8.57;;
37091;SDS011;23005;51.998;4.502;2022-11-15T07:17:12;27.73;;;9.55;;
37091;SDS011;23005;51.998;4.502;2022-11-15T07:18:48;23.27;;;9.45;;
37091;SDS011;23005;51.998;4.502;2022-11-15T07:20:30;21.67;;;8.43;;
37091;SDS011;23005;51.998;4.502;2022-11-15T07:22:06;22.08;;;8.23;;
37091;SDS011;23005;51.998;4.502;2022-11-15T07:23:41;22.40;;;8.32;;
37091;SDS011;23005;51.998;4.502;2022-11-15T07:25:17;20.92;;;7.97;;
37091;SDS011;23005;51.998;4.502;2022-11-15T07:26:53;19.73;;;8.23;;
37091;SDS011;23005;51.998;4.502;2022-11-15T07:28:32;21.23;;;7.53;;
37091;SDS011;23005;51.998;4.502;2022-11-15T07:30:10;26.05;;;7.22;;
37091;SDS011;23005;51.998;4.502;2022-11-15T07:31:50;17.17;;;7.00;;
37091;SDS011;23005;51.998;4.502;2022-11-15T07:33:26;25.23;;;7.93;;
37091;SDS011;23005;51.998;4.502;2022-11-15T07:35:01;16.88;;;7.28;;
37091;SDS011;23005;51.998;4.502;2022-11-15T07:36:40;28.95;;;8.00;;
37091;SDS011;23005;51.998;4.502;2022-11-15T07:38:15;20.60;;;7.63;;
37091;SDS011;23005;51.998;4.502;2022-11-15T07:39:52;26.45;;;8.70;;
37091;SDS011;23005;51.998;4.502;2022-11-15T07:41:32;25.52;;;8.27;;
37091;SDS011;23005;51.998;4.502;2022-11-15T07:43:08;25.23;;;8.93;;
37091;SDS011;23005;51.998;4.502;2022-11-15T07:44:44;22.33;;;8.27;;
37091;SDS011;23005;51.998;4.502;2022-11-15T07:46:22;26.15;;;9.40;;
37091;SDS011;23005;51.998;4.502;2022-11-15T07:47:57;21.05;;;9.02;;
37091;SDS011;23005;51.998;4.502;2022-11-15T07:49:34;20.30;;;8.82;;
37091;SDS011;23005;51.998;4.502;2022-11-15T07:51:15;22.33;;;9.27;;
37091;SDS011;23005;51.998;4.502;2022-11-15T07:52:56;25.52;;;8.90;;
37091;SDS011;23005;51.998;4.502;2022-11-15T07:54:33;24.15;;;9.27;;
37091;SDS011;23005;51.998;4.502;2022-11-15T07:56:09;19.80;;;8.90;;
37091;SDS011;23005;51.998;4.502;2022-11-15T07:57:45;23.67;;;9.70;;
37091;SDS011;23005;51.998;4.502;2022-11-15T07:59:21;19.40;;;8.57;;
37091;SDS011;23005;51.998;4.502;2022-11-15T08:00:56;28.58;;;8.45;;
37091;SDS011;23005;51.998;4.502;2022-11-15T08:02:32;22.88;;;9.20;;
37091;SDS011;23005;51.998;4.502;2022-11-15T08:04:14;19.85;;;8.23;;
37091;SDS011;23005;51.998;4.502;2022-11-15T08:05:54;22.27;;;8.50;;
37091;SDS011;23005;51.998;4.502;2022-11-15T08:07:30;18.85;;;8.35;;
37091;SDS011;23005;51.998;4.502;2022-11-15T08:09:08;24.35;;;7.93;;
37091;SDS011;23005;51.998;4.502;2022-11-15T08:10:44;21.23;;;8.60;;
37091;SDS011;23005;51.998;4.502;2022-11-15T08:12:23;21.95;;;7.65;;
37091;SDS011;23005;51.998;4.502;2022-11-15T08:14:01;18.40;;;7.30;;
37091;SDS011;23005;51.998;4.502;2022-11-15T08:15:37;18.13;;;8.52;;
37091;SDS011;23005;51.998;4.502;2022-11-15T08:17:16;22.60;;;9.57;;
37091;SDS011;23005;51.998;4.502;2022-11-15T08:18:53;21.38;;;9.00;;
37091;SDS011;23005;51.998;4.502;2022-11-15T08:20:28;20.40;;;9.10;;
37091;SDS011;23005;51.998;4.502;2022-11-15T08:22:06;21.65;;;9.43;;
37091;SDS011;23005;51.998;4.502;2022-11-15T08:23:42;23.13;;;9.80;;
37091;SDS011;23005;51.998;4.502;2022-11-15T08:25:19;22.90;;;10.25;;
37091;SDS011;23005;51.998;4.502;2022-11-15T08:26:58;35.58;;;12.35;;
37091;SDS011;23005;51.998;4.502;2022-11-15T08:28:37;28.17;;;12.00;;
37091;SDS011;23005;51.998;4.502;2022-11-15T08:30:13;23.40;;;11.55;;
37091;SDS011;23005;51.998;4.502;2022-11-15T08:31:50;24.58;;;11.23;;
37091;SDS011;23005;51.998;4.502;2022-11-15T08:33:26;22.80;;;10.65;;
37091;SDS011;23005;51.998;4.502;2022-11-15T08:35:04;32.38;;;11.60;;
37091;SDS011;23005;51.998;4.502;2022-11-15T08:36:41;21.67;;;10.85;;
37091;SDS011;23005;51.998;4.502;2022-11-15T08:38:20;21.73;;;11.20;;
37091;SDS011;23005;51.998;4.502;2022-11-15T08:39:55;32.75;;;10.98;;
37091;SDS011;23005;51.998;4.502;2022-11-15T08:41:38;24.35;;;10.52;;
37091;SDS011;23005;51.998;4.502;2022-11-15T08:43:17;26.95;;;11.88;;
37091;SDS011;23005;51.998;4.502;2022-11-15T08:44:54;18.73;;;10.93;;
37091;SDS011;23005;51.998;4.502;2022-11-15T08:46:32;26.20;;;11.43;;
37091;SDS011;23005;51.998;4.502;2022-11-15T08:48:08;20.67;;;11.18;;
37091;SDS011;23005;51.998;4.502;2022-11-15T08:49:44;21.08;;;10.50;;
37091;SDS011;23005;51.998;4.502;2022-11-15T08:51:25;25.88;;;11.57;;
37091;SDS011;23005;51.998;4.502;2022-11-15T08:53:05;25.42;;;11.93;;
37091;SDS011;23005;51.998;4.502;2022-11-15T08:54:41;18.10;;;10.23;;
37091;SDS011;23005;51.998;4.502;2022-11-15T08:56:17;21.13;;;10.30;;
37091;SDS011;23005;51.998;4.502;2022-11-15T08:57:58;23.38;;;10.43;;
37091;SDS011;23005;51.998;4.502;2022-11-15T08:59:34;26.60;;;9.07;;
37091;SDS011;23005;51.998;4.502;2022-11-15T09:01:15;19.40;;;9.45;;
37091;SDS011;23005;51.998;4.502;2022-11-15T09:02:54;24.77;;;9.48;;
37091;SDS011;23005;51.998;4.502;2022-11-15T09:04:35;17.25;;;8.90;;
37091;SDS011;23005;51.998;4.502;2022-11-15T09:06:16;19.45;;;8.48;;
37091;SDS011;23005;51.998;4.502;2022-11-15T09:07:53;27.75;;;8.45;;
37091;SDS011;23005;51.998;4.502;2022-11-15T09:09:31;18.27;;;8.50;;
37091;SDS011;23005;51.998;4.502;2022-11-15T09:11:11;22.92;;;8.23;;
37091;SDS011;23005;51.998;4.502;2022-11-15T09:12:48;20.50;;;8.32;;
37091;SDS011;23005;51.998;4.502;2022-11-15T09:14:25;17.55;;;8.43;;
37091;SDS011;23005;51.998;4.502;2022-11-15T09:16:01;14.25;;;8.50;;
37091;SDS011;23005;51.998;4.502;2022-11-15T09:17:40;19.58;;;8.48;;
37091;SDS011;23005;51.998;4.502;2022-11-15T09:19:17;23.38;;;9.05;;
37091;SDS011;23005;51.998;4.502;2022-11-15T09:20:54;16.33;;;8.32;;
37091;SDS011;23005;51.998;4.502;2022-11-15T09:22:34;18.20;;;9.40;;
37091;SDS011;23005;51.998;4.502;2022-11-15T09:24:10;26.05;;;9.30;;
37091;SDS011;23005;51.998;4.502;2022-11-15T09:25:46;16.90;;;7.80;;
37091;SDS011;23005;51.998;4.502;2022-11-15T09:27:26;21.10;;;8.82;;
37091;SDS011;23005;51.998;4.502;2022-11-15T09:29:21;23.27;;;8.75;;
37091;SDS011;23005;51.998;4.502;2022-11-15T09:31:05;22.35;;;8.23;;
37091;SDS011;23005;51.998;4.502;2022-11-15T09:32:42;20.17;;;7.82;;
37091;SDS011;23005;51.998;4.502;2022-11-15T09:34:20;21.35;;;8.77;;
37091;SDS011;23005;51.998;4.502;2022-11-15T09:35:59;17.92;;;7.72;;
37091;SDS011;23005;51.998;4.502;2022-11-15T09:37:38;25.27;;;8.75;;
37091;SDS011;23005;51.998;4.502;2022-11-15T09:39:15;21.23;;;8.13;;
37091;SDS011;23005;51.998;4.502;2022-11-15T09:41:05;20.85;;;8.30;;
37091;SDS011;23005;51.998;4.502;2022-11-15T09:43:10;16.58;;;7.75;;
37091;SDS011;23005;51.998;4.502;2022-11-15T09:45:15;20.55;;;8.02;;
37091;SDS011;23005;51.998;4.502;2022-11-15T09:46:59;14.65;;;7.15;;
37091;SDS011;23005;51.998;4.502;2022-11-15T09:48:54;20.85;;;7.20;;
37091;SDS011;23005;51.998;4.502;2022-11-15T09:50:34;21.90;;;7.05;;